Fall Creek, Wisconsin
Current Conditions -  °F | °C
As of 6:56 PM on Friday 19 Dec 2014 (Local Time) from KEAU Reporting Station
Overcast Overcast  
Wind Chill: 21°   Ceiling: 2800
Heat Index: 28°   Visibility: 10mi
Dew Point: 19°   Wind: 7mph
Humidity: 69%   Direction: 170°S
Pressure: 30.23"   Gusts: NA
Location:  44.76°N, 91.28°W
Report Text: KEAU 200056Z 17006KT 10SM OVC028 M02/M07 A3023 RMK AO2 SLP252 T10221072
Loading
Personal Weather Stations






























Interactive Weather Map New forecast layout! Learn more

10-Day Weather Forecast

Advertisements
Track Severe Weather on mobile